sensor_id;sensor_type;location;lat;lon;timestamp;temperature;humidity
70269;DHT22;58514;48.398;-4.274;2022-12-18T00:01:29;1.10;99.90
70269;DHT22;58514;48.398;-4.274;2022-12-18T00:03:56;1.10;99.90
70269;DHT22;58514;48.398;-4.274;2022-12-18T00:06:22;1.10;99.90
70269;DHT22;58514;48.398;-4.274;2022-12-18T00:08:48;1.10;99.90
70269;DHT22;58514;48.398;-4.274;2022-12-18T00:11:15;1.10;99.90
70269;DHT22;58514;48.398;-4.274;2022-12-18T00:13:41;1.20;99.90
70269;DHT22;58514;48.398;-4.274;2022-12-18T00:16:08;1.20;99.90
70269;DHT22;58514;48.398;-4.274;2022-12-18T00:18:33;1.20;99.90
70269;DHT22;58514;48.398;-4.274;2022-12-18T00:21:02;1.20;99.90
70269;DHT22;58514;48.398;-4.274;2022-12-18T00:23:29;1.30;99.90
70269;DHT22;58514;48.398;-4.274;2022-12-18T00:25:58;1.30;99.90
70269;DHT22;58514;48.398;-4.274;2022-12-18T00:28:23;1.40;99.90
70269;DHT22;58514;48.398;-4.274;2022-12-18T00:30:49;1.40;99.90
70269;DHT22;58514;48.398;-4.274;2022-12-18T00:33:17;1.40;99.90
70269;DHT22;58514;48.398;-4.274;2022-12-18T00:35:42;1.50;99.90
70269;DHT22;58514;48.398;-4.274;2022-12-18T00:38:08;1.50;99.90
70269;DHT22;58514;48.398;-4.274;2022-12-18T00:40:33;1.50;99.90
70269;DHT22;58514;48.398;-4.274;2022-12-18T00:42:59;1.50;99.90
70269;DHT22;58514;48.398;-4.274;2022-12-18T00:45:28;1.50;99.90
70269;DHT22;58514;48.398;-4.274;2022-12-18T00:47:54;1.50;99.90
70269;DHT22;58514;48.398;-4.274;2022-12-18T00:50:20;1.50;99.90
70269;DHT22;58514;48.398;-4.274;2022-12-18T00:52:46;1.50;99.90
70269;DHT22;58514;48.398;-4.274;2022-12-18T00:55:12;1.50;99.90
70269;DHT22;58514;48.398;-4.274;2022-12-18T00:57:38;1.50;99.90
70269;DHT22;58514;48.398;-4.274;2022-12-18T01:00:04;1.50;99.90
70269;DHT22;58514;48.398;-4.274;2022-12-18T01:02:30;1.50;99.90
70269;DHT22;58514;48.398;-4.274;2022-12-18T01:04:55;1.50;99.90
70269;DHT22;58514;48.398;-4.274;2022-12-18T01:07:21;1.50;99.90
70269;DHT22;58514;48.398;-4.274;2022-12-18T01:09:46;1.50;99.90
70269;DHT22;58514;48.398;-4.274;2022-12-18T01:12:12;1.60;99.90
70269;DHT22;58514;48.398;-4.274;2022-12-18T01:14:37;1.60;99.90
70269;DHT22;58514;48.398;-4.274;2022-12-18T01:17:03;1.60;99.90
70269;DHT22;58514;48.398;-4.274;2022-12-18T01:19:29;1.60;99.90
70269;DHT22;58514;48.398;-4.274;2022-12-18T01:21:54;1.60;99.90
70269;DHT22;58514;48.398;-4.274;2022-12-18T01:24:20;1.60;99.90
70269;DHT22;58514;48.398;-4.274;2022-12-18T01:26:45;1.60;99.90
70269;DHT22;58514;48.398;-4.274;2022-12-18T01:29:11;1.70;99.90
70269;DHT22;58514;48.398;-4.274;2022-12-18T01:31:37;1.70;99.90
70269;DHT22;58514;48.398;-4.274;2022-12-18T01:34:03;1.70;99.90
70269;DHT22;58514;48.398;-4.274;2022-12-18T01:36:30;1.80;99.90
70269;DHT22;58514;48.398;-4.274;2022-12-18T01:38:58;1.80;99.90
70269;DHT22;58514;48.398;-4.274;2022-12-18T01:41:25;1.80;99.90
70269;DHT22;58514;48.398;-4.274;2022-12-18T01:43:55;1.80;99.90
70269;DHT22;58514;48.398;-4.274;2022-12-18T01:46:25;1.90;99.90
70269;DHT22;58514;48.398;-4.274;2022-12-18T01:48:52;1.90;99.90
70269;DHT22;58514;48.398;-4.274;2022-12-18T01:51:19;1.90;99.90
70269;DHT22;58514;48.398;-4.274;2022-12-18T01:53:45;1.90;99.90
70269;DHT22;58514;48.398;-4.274;2022-12-18T01:56:12;2.00;99.90
70269;DHT22;58514;48.398;-4.274;2022-12-18T01:58:40;2.00;99.90
70269;DHT22;58514;48.398;-4.274;2022-12-18T02:01:06;2.00;99.90
70269;DHT22;58514;48.398;-4.274;2022-12-18T02:03:32;2.10;99.90
70269;DHT22;58514;48.398;-4.274;2022-12-18T02:06:09;2.10;99.90
70269;DHT22;58514;48.398;-4.274;2022-12-18T02:08:43;2.10;99.90
70269;DHT22;58514;48.398;-4.274;2022-12-18T02:18:35;2.30;99.90
70269;DHT22;58514;48.398;-4.274;2022-12-18T02:21:20;2.30;99.90
70269;DHT22;58514;48.398;-4.274;2022-12-18T02:26:15;2.40;99.90
70269;DHT22;58514;48.398;-4.274;2022-12-18T02:28:46;2.40;99.90
70269;DHT22;58514;48.398;-4.274;2022-12-18T02:31:15;2.50;99.90
70269;DHT22;58514;48.398;-4.274;2022-12-18T02:33:43;2.50;99.90
70269;DHT22;58514;48.398;-4.274;2022-12-18T02:36:09;2.60;99.90
70269;DHT22;58514;48.398;-4.274;2022-12-18T02:38:36;2.60;99.90
70269;DHT22;58514;48.398;-4.274;2022-12-18T02:41:02;2.60;99.90
70269;DHT22;58514;48.398;-4.274;2022-12-18T02:43:29;2.60;99.90
70269;DHT22;58514;48.398;-4.274;2022-12-18T02:45:58;2.70;99.90
70269;DHT22;58514;48.398;-4.274;2022-12-18T02:48:27;2.70;99.90
70269;DHT22;58514;48.398;-4.274;2022-12-18T02:56:39;2.80;99.90
70269;DHT22;58514;48.398;-4.274;2022-12-18T02:59:09;2.90;99.90
70269;DHT22;58514;48.398;-4.274;2022-12-18T03:04:20;2.90;99.90
70269;DHT22;58514;48.398;-4.274;2022-12-18T03:06:49;3.00;99.90
70269;DHT22;58514;48.398;-4.274;2022-12-18T03:09:18;3.00;99.90
70269;DHT22;58514;48.398;-4.274;2022-12-18T03:11:45;3.00;99.90
70269;DHT22;58514;48.398;-4.274;2022-12-18T03:14:30;3.10;99.90
70269;DHT22;58514;48.398;-4.274;2022-12-18T03:16:59;3.10;99.90
70269;DHT22;58514;48.398;-4.274;2022-12-18T03:19:26;3.20;99.90
70269;DHT22;58514;48.398;-4.274;2022-12-18T03:21:53;3.20;99.90
70269;DHT22;58514;48.398;-4.274;2022-12-18T03:24:20;3.20;99.90
70269;DHT22;58514;48.398;-4.274;2022-12-18T03:26:47;3.20;99.90
70269;DHT22;58514;48.398;-4.274;2022-12-18T03:29:18;3.30;99.90
70269;DHT22;58514;48.398;-4.274;2022-12-18T03:31:47;3.40;99.90
70269;DHT22;58514;48.398;-4.274;2022-12-18T03:34:15;3.40;99.90
70269;DHT22;58514;48.398;-4.274;2022-12-18T03:36:42;3.50;99.90
70269;DHT22;58514;48.398;-4.274;2022-12-18T03:39:08;3.50;99.90
70269;DHT22;58514;48.398;-4.274;2022-12-18T03:42:17;3.60;99.90
70269;DHT22;58514;48.398;-4.274;2022-12-18T03:44:29;3.60;99.90
70269;DHT22;58514;48.398;-4.274;2022-12-18T03:49:35;3.70;99.90
70269;DHT22;58514;48.398;-4.274;2022-12-18T03:52:05;3.70;99.90
70269;DHT22;58514;48.398;-4.274;2022-12-18T03:54:31;3.70;99.90
70269;DHT22;58514;48.398;-4.274;2022-12-18T03:56:59;3.70;99.90
70269;DHT22;58514;48.398;-4.274;2022-12-18T03:59:26;3.80;99.90
70269;DHT22;58514;48.398;-4.274;2022-12-18T04:01:53;3.80;99.90
70269;DHT22;58514;48.398;-4.274;2022-12-18T04:04:20;3.80;99.90
70269;DHT22;58514;48.398;-4.274;2022-12-18T04:06:46;3.90;99.90
70269;DHT22;58514;48.398;-4.274;2022-12-18T04:09:13;3.90;99.90
70269;DHT22;58514;48.398;-4.274;2022-12-18T04:11:39;3.90;99.90
70269;DHT22;58514;48.398;-4.274;2022-12-18T04:14:05;4.00;99.90
70269;DHT22;58514;48.398;-4.274;2022-12-18T04:16:31;3.90;99.90
70269;DHT22;58514;48.398;-4.274;2022-12-18T04:18:56;4.00;99.90
70269;DHT22;58514;48.398;-4.274;2022-12-18T04:21:22;4.00;99.90
70269;DHT22;58514;48.398;-4.274;2022-12-18T04:23:48;4.10;99.90
70269;DHT22;58514;48.398;-4.274;2022-12-18T04:26:13;4.10;99.90
70269;DHT22;58514;48.398;-4.274;2022-12-18T04:28:39;4.10;99.90
70269;DHT22;58514;48.398;-4.274;2022-12-18T04:31:05;4.20;99.90
70269;DHT22;58514;48.398;-4.274;2022-12-18T04:33:30;4.20;99.90
70269;DHT22;58514;48.398;-4.274;2022-12-18T04:35:56;4.20;99.90
70269;DHT22;58514;48.398;-4.274;2022-12-18T04:38:21;4.20;99.90
70269;DHT22;58514;48.398;-4.274;2022-12-18T04:40:47;4.30;99.90
70269;DHT22;58514;48.398;-4.274;2022-12-18T04:43:13;4.30;99.90
70269;DHT22;58514;48.398;-4.274;2022-12-18T04:45:38;4.40;99.90
70269;DHT22;58514;48.398;-4.274;2022-12-18T04:48:04;4.40;99.90
70269;DHT22;58514;48.398;-4.274;2022-12-18T04:50:29;4.40;99.90
70269;DHT22;58514;48.398;-4.274;2022-12-18T04:52:56;4.40;99.90
70269;DHT22;58514;48.398;-4.274;2022-12-18T04:55:21;4.40;99.90
70269;DHT22;58514;48.398;-4.274;2022-12-18T04:57:47;4.40;99.90
70269;DHT22;58514;48.398;-4.274;2022-12-18T05:00:13;4.50;99.90
70269;DHT22;58514;48.398;-4.274;2022-12-18T05:02:38;4.50;99.90
70269;DHT22;58514;48.398;-4.274;2022-12-18T05:05:04;4.50;99.90
70269;DHT22;58514;48.398;-4.274;2022-12-18T05:07:30;4.50;99.90
70269;DHT22;58514;48.398;-4.274;2022-12-18T05:09:55;4.50;99.90
70269;DHT22;58514;48.398;-4.274;2022-12-18T05:12:21;4.50;99.90
70269;DHT22;58514;48.398;-4.274;2022-12-18T05:14:46;4.50;99.90
70269;DHT22;58514;48.398;-4.274;2022-12-18T05:17:12;4.60;99.90
70269;DHT22;58514;48.398;-4.274;2022-12-18T05:19:37;4.60;99.90
70269;DHT22;58514;48.398;-4.274;2022-12-18T05:22:03;4.60;99.90
70269;DHT22;58514;48.398;-4.274;2022-12-18T05:24:29;4.60;99.90
70269;DHT22;58514;48.398;-4.274;2022-12-18T05:26:54;4.70;99.90
70269;DHT22;58514;48.398;-4.274;2022-12-18T05:29:20;4.70;99.90
70269;DHT22;58514;48.398;-4.274;2022-12-18T05:31:45;4.70;99.90
70269;DHT22;58514;48.398;-4.274;2022-12-18T05:34:11;4.70;99.90
70269;DHT22;58514;48.398;-4.274;2022-12-18T05:36:36;4.70;99.90
70269;DHT22;58514;48.398;-4.274;2022-12-18T05:39:02;4.80;99.90
70269;DHT22;58514;48.398;-4.274;2022-12-18T05:41:28;4.80;99.90
70269;DHT22;58514;48.398;-4.274;2022-12-18T05:43:54;4.70;99.90
70269;DHT22;58514;48.398;-4.274;2022-12-18T05:46:19;4.80;99.90
70269;DHT22;58514;48.398;-4.274;2022-12-18T05:48:45;4.80;99.90
70269;DHT22;58514;48.398;-4.274;2022-12-18T05:51:11;4.80;99.90
70269;DHT22;58514;48.398;-4.274;2022-12-18T05:53:37;4.80;99.90
70269;DHT22;58514;48.398;-4.274;2022-12-18T05:56:04;4.80;99.90
70269;DHT22;58514;48.398;-4.274;2022-12-18T05:58:30;4.90;99.90
70269;DHT22;58514;48.398;-4.274;2022-12-18T06:00:56;4.90;99.90
70269;DHT22;58514;48.398;-4.274;2022-12-18T06:03:22;4.90;99.90
70269;DHT22;58514;48.398;-4.274;2022-12-18T06:05:47;4.90;99.90
70269;DHT22;58514;48.398;-4.274;2022-12-18T06:08:13;4.90;99.90
70269;DHT22;58514;48.398;-4.274;2022-12-18T06:10:39;4.90;99.90
70269;DHT22;58514;48.398;-4.274;2022-12-18T06:13:05;4.90;99.90
70269;DHT22;58514;48.398;-4.274;2022-12-18T06:15:31;5.00;99.90
70269;DHT22;58514;48.398;-4.274;2022-12-18T06:17:56;5.00;99.90
70269;DHT22;58514;48.398;-4.274;2022-12-18T06:20:22;5.00;99.90
70269;DHT22;58514;48.398;-4.274;2022-12-18T06:22:47;5.00;99.90
70269;DHT22;58514;48.398;-4.274;2022-12-18T06:25:13;5.00;99.90
70269;DHT22;58514;48.398;-4.274;2022-12-18T06:27:39;5.00;99.90
70269;DHT22;58514;48.398;-4.274;2022-12-18T06:30:04;5.10;99.90
70269;DHT22;58514;48.398;-4.274;2022-12-18T06:32:30;5.10;99.90
70269;DHT22;58514;48.398;-4.274;2022-12-18T06:34:56;5.20;99.90
70269;DHT22;58514;48.398;-4.274;2022-12-18T06:37:22;5.20;99.90
70269;DHT22;58514;48.398;-4.274;2022-12-18T06:39:51;5.20;99.90
70269;DHT22;58514;48.398;-4.274;2022-12-18T06:42:17;5.30;99.90
70269;DHT22;58514;48.398;-4.274;2022-12-18T06:44:42;5.30;99.90
70269;DHT22;58514;48.398;-4.274;2022-12-18T06:47:08;5.40;99.90
70269;DHT22;58514;48.398;-4.274;2022-12-18T06:49:33;5.50;99.90
70269;DHT22;58514;48.398;-4.274;2022-12-18T06:51:59;5.50;99.90
70269;DHT22;58514;48.398;-4.274;2022-12-18T06:54:24;5.60;99.90
70269;DHT22;58514;48.398;-4.274;2022-12-18T06:56:50;5.60;99.90
70269;DHT22;58514;48.398;-4.274;2022-12-18T06:59:16;5.70;99.90
70269;DHT22;58514;48.398;-4.274;2022-12-18T07:01:41;5.70;99.90
70269;DHT22;58514;48.398;-4.274;2022-12-18T07:04:07;5.70;99.90
70269;DHT22;58514;48.398;-4.274;2022-12-18T07:06:32;5.80;99.90
70269;DHT22;58514;48.398;-4.274;2022-12-18T07:08:58;5.80;99.90
70269;DHT22;58514;48.398;-4.274;2022-12-18T07:11:24;5.90;99.90
70269;DHT22;58514;48.398;-4.274;2022-12-18T07:13:49;5.90;99.90
70269;DHT22;58514;48.398;-4.274;2022-12-18T07:16:16;6.00;99.90
70269;DHT22;58514;48.398;-4.274;2022-12-18T07:18:42;6.00;99.90
70269;DHT22;58514;48.398;-4.274;2022-12-18T07:21:08;6.10;99.90
70269;DHT22;58514;48.398;-4.274;2022-12-18T07:23:34;6.10;99.90
70269;DHT22;58514;48.398;-4.274;2022-12-18T07:26:03;6.20;99.90
70269;DHT22;58514;48.398;-4.274;2022-12-18T07:28:29;6.30;99.90
70269;DHT22;58514;48.398;-4.274;2022-12-18T07:30:55;6.30;99.90
70269;DHT22;58514;48.398;-4.274;2022-12-18T07:33:21;6.40;99.90
70269;DHT22;58514;48.398;-4.274;2022-12-18T07:35:46;6.50;99.90
70269;DHT22;58514;48.398;-4.274;2022-12-18T07:38:12;6.50;99.90
70269;DHT22;58514;48.398;-4.274;2022-12-18T07:40:37;6.60;99.90
70269;DHT22;58514;48.398;-4.274;2022-12-18T07:43:03;6.70;99.90
70269;DHT22;58514;48.398;-4.274;2022-12-18T07:45:28;6.70;99.90
70269;DHT22;58514;48.398;-4.274;2022-12-18T07:47:54;6.80;99.90
70269;DHT22;58514;48.398;-4.274;2022-12-18T07:50:20;6.90;99.90
70269;DHT22;58514;48.398;-4.274;2022-12-18T07:52:45;6.90;99.90
70269;DHT22;58514;48.398;-4.274;2022-12-18T07:55:11;7.00;99.90
70269;DHT22;58514;48.398;-4.274;2022-12-18T07:57:37;7.00;99.90
70269;DHT22;58514;48.398;-4.274;2022-12-18T08:00:03;7.10;99.90
70269;DHT22;58514;48.398;-4.274;2022-12-18T08:02:30;7.10;99.90
70269;DHT22;58514;48.398;-4.274;2022-12-18T08:04:56;7.10;99.90
70269;DHT22;58514;48.398;-4.274;2022-12-18T08:07:21;7.20;99.90
70269;DHT22;58514;48.398;-4.274;2022-12-18T08:09:47;7.20;99.90
70269;DHT22;58514;48.398;-4.274;2022-12-18T08:12:12;7.20;99.90
70269;DHT22;58514;48.398;-4.274;2022-12-18T08:14:38;7.30;99.90
70269;DHT22;58514;48.398;-4.274;2022-12-18T08:17:03;7.30;99.90
70269;DHT22;58514;48.398;-4.274;2022-12-18T08:19:29;7.30;99.90
70269;DHT22;58514;48.398;-4.274;2022-12-18T08:21:54;7.40;99.90
70269;DHT22;58514;48.398;-4.274;2022-12-18T08:24:20;7.40;99.90
70269;DHT22;58514;48.398;-4.274;2022-12-18T08:26:46;7.50;99.90
70269;DHT22;58514;48.398;-4.274;2022-12-18T08:29:11;7.50;99.90
70269;DHT22;58514;48.398;-4.274;2022-12-18T08:31:37;7.60;99.90
70269;DHT22;58514;48.398;-4.274;2022-12-18T08:34:03;7.60;99.90
70269;DHT22;58514;48.398;-4.274;2022-12-18T08:36:28;7.70;99.90
70269;DHT22;58514;48.398;-4.274;2022-12-18T08:38:54;7.80;99.90
70269;DHT22;58514;48.398;-4.274;2022-12-18T08:41:20;7.80;99.90
70269;DHT22;58514;48.398;-4.274;2022-12-18T08:43:46;7.90;99.90
70269;DHT22;58514;48.398;-4.274;2022-12-18T08:46:34;8.00;99.90
70269;DHT22;58514;48.398;-4.274;2022-12-18T08:49:00;8.20;99.90
70269;DHT22;58514;48.398;-4.274;2022-12-18T08:51:25;8.30;99.90
70269;DHT22;58514;48.398;-4.274;2022-12-18T08:53:51;8.40;99.90
70269;DHT22;58514;48.398;-4.274;2022-12-18T08:56:17;8.40;99.90
70269;DHT22;58514;48.398;-4.274;2022-12-18T08:58:42;8.50;99.90
70269;DHT22;58514;48.398;-4.274;2022-12-18T09:01:09;8.60;99.90
70269;DHT22;58514;48.398;-4.274;2022-12-18T09:03:35;8.70;99.90
70269;DHT22;58514;48.398;-4.274;2022-12-18T09:06:01;8.70;99.90
70269;DHT22;58514;48.398;-4.274;2022-12-18T09:08:27;8.80;99.90
70269;DHT22;58514;48.398;-4.274;2022-12-18T09:10:52;8.80;99.90
70269;DHT22;58514;48.398;-4.274;2022-12-18T09:13:18;8.90;99.90
70269;DHT22;58514;48.398;-4.274;2022-12-18T09:15:44;8.90;99.90
70269;DHT22;58514;48.398;-4.274;2022-12-18T09:18:10;9.00;99.90
70269;DHT22;58514;48.398;-4.274;2022-12-18T09:20:36;9.10;99.90
70269;DHT22;58514;48.398;-4.274;2022-12-18T09:23:02;9.20;99.90
70269;DHT22;58514;48.398;-4.274;2022-12-18T09:25:29;9.20;99.90
70269;DHT22;58514;48.398;-4.274;2022-12-18T09:28:05;9.30;99.90
70269;DHT22;58514;48.398;-4.274;2022-12-18T09:30:31;9.40;99.90
70269;DHT22;58514;48.398;-4.274;2022-12-18T09:32:58;9.50;99.90
70269;DHT22;58514;48.398;-4.274;2022-12-18T09:35:24;9.50;99.90
70269;DHT22;58514;48.398;-4.274;2022-12-18T09:37:50;9.60;99.90
70269;DHT22;58514;48.398;-4.274;2022-12-18T09:40:16;9.70;99.90
70269;DHT22;58514;48.398;-4.274;2022-12-18T09:42:44;9.70;99.90
70269;DHT22;58514;48.398;-4.274;2022-12-18T09:45:12;9.80;99.90
70269;DHT22;58514;48.398;-4.274;2022-12-18T09:47:38;9.90;99.90
70269;DHT22;58514;48.398;-4.274;2022-12-18T09:50:06;9.90;99.90
70269;DHT22;58514;48.398;-4.274;2022-12-18T09:52:41;10.00;99.90
70269;DHT22;58514;48.398;-4.274;2022-12-18T09:55:10;10.00;99.90
70269;DHT22;58514;48.398;-4.274;2022-12-18T09:57:38;10.00;99.90
70269;DHT22;58514;48.398;-4.274;2022-12-18T10:00:26;10.10;99.90
70269;DHT22;58514;48.398;-4.274;2022-12-18T10:02:51;10.10;99.90
70269;DHT22;58514;48.398;-4.274;2022-12-18T10:05:26;10.10;99.90
70269;DHT22;58514;48.398;-4.274;2022-12-18T10:10:25;10.10;99.90
70269;DHT22;58514;48.398;-4.274;2022-12-18T10:12:57;10.10;99.90
70269;DHT22;58514;48.398;-4.274;2022-12-18T10:18:12;10.10;99.90
70269;DHT22;58514;48.398;-4.274;2022-12-18T10:21:00;10.10;99.90
70269;DHT22;58514;48.398;-4.274;2022-12-18T10:23:44;10.10;99.90
70269;DHT22;58514;48.398;-4.274;2022-12-18T10:26:14;10.20;99.90
70269;DHT22;58514;48.398;-4.274;2022-12-18T10:28:40;10.20;99.90
70269;DHT22;58514;48.398;-4.274;2022-12-18T10:31:06;10.20;99.90
70269;DHT22;58514;48.398;-4.274;2022-12-18T10:33:32;10.20;99.90
70269;DHT22;58514;48.398;-4.274;2022-12-18T10:35:58;10.30;99.90
70269;DHT22;58514;48.398;-4.274;2022-12-18T10:38:29;10.20;99.90
70269;DHT22;58514;48.398;-4.274;2022-12-18T10:48:24;10.30;99.90
70269;DHT22;58514;48.398;-4.274;2022-12-18T10:50:50;10.30;99.90
70269;DHT22;58514;48.398;-4.274;2022-12-18T10:53:22;10.30;99.90
70269;DHT22;58514;48.398;-4.274;2022-12-18T10:55:47;10.30;99.90
70269;DHT22;58514;48.398;-4.274;2022-12-18T10:58:20;10.40;99.90
70269;DHT22;58514;48.398;-4.274;2022-12-18T11:01:01;10.30;99.90
70269;DHT22;58514;48.398;-4.274;2022-12-18T11:03:32;10.40;99.90
70269;DHT22;58514;48.398;-4.274;2022-12-18T11:06:04;10.40;99.90
70269;DHT22;58514;48.398;-4.274;2022-12-18T11:08:30;10.40;99.90
70269;DHT22;58514;48.398;-4.274;2022-12-18T11:10:56;10.40;99.90
70269;DHT22;58514;48.398;-4.274;2022-12-18T11:13:22;10.40;99.90
70269;DHT22;58514;48.398;-4.274;2022-12-18T11:15:49;10.40;99.90
70269;DHT22;58514;48.398;-4.274;2022-12-18T11:18:28;10.40;99.90
70269;DHT22;58514;48.398;-4.274;2022-12-18T11:23:23;10.40;99.90
70269;DHT22;58514;48.398;-4.274;2022-12-18T11:25:53;10.40;99.90
70269;DHT22;58514;48.398;-4.274;2022-12-18T11:33:36;10.40;99.90
70269;DHT22;58514;48.398;-4.274;2022-12-18T11:36:03;10.50;99.90
70269;DHT22;58514;48.398;-4.274;2022-12-18T11:38:32;10.50;99.90
70269;DHT22;58514;48.398;-4.274;2022-12-18T11:41:00;10.50;99.90
70269;DHT22;58514;48.398;-4.274;2022-12-18T11:46:36;10.50;99.90
70269;DHT22;58514;48.398;-4.274;2022-12-18T11:52:18;10.50;99.90
70269;DHT22;58514;48.398;-4.274;2022-12-18T11:54:45;10.50;99.90
70269;DHT22;58514;48.398;-4.274;2022-12-18T11:57:29;10.50;99.90
70269;DHT22;58514;48.398;-4.274;2022-12-18T12:10:16;10.50;99.90
70269;DHT22;58514;48.398;-4.274;2022-12-18T12:13:49;10.50;99.90
70269;DHT22;58514;48.398;-4.274;2022-12-18T12:15:43;10.50;99.90
70269;DHT22;58514;48.398;-4.274;2022-12-18T12:18:17;10.50;99.90
70269;DHT22;58514;48.398;-4.274;2022-12-18T12:23:59;10.50;99.90
70269;DHT22;58514;48.398;-4.274;2022-12-18T12:26:10;10.50;99.90
70269;DHT22;58514;48.398;-4.274;2022-12-18T12:31:42;10.50;99.90
70269;DHT22;58514;48.398;-4.274;2022-12-18T12:34:15;10.50;99.90
70269;DHT22;58514;48.398;-4.274;2022-12-18T12:39:21;10.50;99.90
70269;DHT22;58514;48.398;-4.274;2022-12-18T12:41:48;10.50;99.90
70269;DHT22;58514;48.398;-4.274;2022-12-18T12:44:33;10.50;99.90
70269;DHT22;58514;48.398;-4.274;2022-12-18T12:47:00;10.50;99.90
70269;DHT22;58514;48.398;-4.274;2022-12-18T12:49:30;10.60;99.90
70269;DHT22;58514;48.398;-4.274;2022-12-18T12:51:58;10.60;99.90
70269;DHT22;58514;48.398;-4.274;2022-12-18T12:54:25;10.50;99.90
70269;DHT22;58514;48.398;-4.274;2022-12-18T12:59:27;10.60;99.90
70269;DHT22;58514;48.398;-4.274;2022-12-18T13:02:01;10.60;99.90
70269;DHT22;58514;48.398;-4.274;2022-12-18T13:04:34;10.60;99.90
70269;DHT22;58514;48.398;-4.274;2022-12-18T13:09:33;10.60;99.90
70269;DHT22;58514;48.398;-4.274;2022-12-18T13:12:03;10.60;99.90
70269;DHT22;58514;48.398;-4.274;2022-12-18T13:14:48;10.70;99.90
70269;DHT22;58514;48.398;-4.274;2022-12-18T13:19:48;10.70;99.90
70269;DHT22;58514;48.398;-4.274;2022-12-18T13:22:29;10.70;99.90
70269;DHT22;58514;48.398;-4.274;2022-12-18T13:24:55;10.70;99.90
70269;DHT22;58514;48.398;-4.274;2022-12-18T13:30:51;10.70;99.90
70269;DHT22;58514;48.398;-4.274;2022-12-18T13:33:13;10.80;99.90
70269;DHT22;58514;48.398;-4.274;2022-12-18T13:35:37;10.80;99.90
70269;DHT22;58514;48.398;-4.274;2022-12-18T13:38:18;10.80;99.90
70269;DHT22;58514;48.398;-4.274;2022-12-18T13:48:21;10.80;99.90
70269;DHT22;58514;48.398;-4.274;2022-12-18T13:50:57;10.80;99.90
70269;DHT22;58514;48.398;-4.274;2022-12-18T13:53:26;10.80;99.90
70269;DHT22;58514;48.398;-4.274;2022-12-18T13:55:53;10.80;99.90
70269;DHT22;58514;48.398;-4.274;2022-12-18T13:58:18;10.80;99.90
70269;DHT22;58514;48.398;-4.274;2022-12-18T14:00:44;10.80;99.90
70269;DHT22;58514;48.398;-4.274;2022-12-18T14:03:43;10.90;99.90
70269;DHT22;58514;48.398;-4.274;2022-12-18T14:06:03;10.80;99.90
70269;DHT22;58514;48.398;-4.274;2022-12-18T14:08:32;10.90;99.90
70269;DHT22;58514;48.398;-4.274;2022-12-18T14:10:58;10.90;99.90
70269;DHT22;58514;48.398;-4.274;2022-12-18T14:13:32;10.90;99.90
70269;DHT22;58514;48.398;-4.274;2022-12-18T14:16:00;10.90;99.90
70269;DHT22;58514;48.398;-4.274;2022-12-18T14:18:45;10.90;99.90
70269;DHT22;58514;48.398;-4.274;2022-12-18T14:21:29;10.90;99.90
70269;DHT22;58514;48.398;-4.274;2022-12-18T14:26:29;10.90;99.90
70269;DHT22;58514;48.398;-4.274;2022-12-18T14:28:55;10.90;99.90
70269;DHT22;58514;48.398;-4.274;2022-12-18T14:31:23;10.90;99.90
70269;DHT22;58514;48.398;-4.274;2022-12-18T14:33:48;10.90;99.90
70269;DHT22;58514;48.398;-4.274;2022-12-18T14:36:15;10.90;99.90
70269;DHT22;58514;48.398;-4.274;2022-12-18T14:38:42;10.90;99.90
70269;DHT22;58514;48.398;-4.274;2022-12-18T14:41:11;10.90;99.90
70269;DHT22;58514;48.398;-4.274;2022-12-18T14:43:39;11.00;99.90
70269;DHT22;58514;48.398;-4.274;2022-12-18T14:46:05;11.00;99.90
70269;DHT22;58514;48.398;-4.274;2022-12-18T14:48:38;10.90;99.90
70269;DHT22;58514;48.398;-4.274;2022-12-18T14:51:21;11.00;99.90
70269;DHT22;58514;48.398;-4.274;2022-12-18T14:53:53;11.00;99.90
70269;DHT22;58514;48.398;-4.274;2022-12-18T14:56:27;11.00;99.90
70269;DHT22;58514;48.398;-4.274;2022-12-18T14:59:03;11.00;99.90
70269;DHT22;58514;48.398;-4.274;2022-12-18T15:03:56;11.00;99.90
70269;DHT22;58514;48.398;-4.274;2022-12-18T15:06:29;11.00;99.90
70269;DHT22;58514;48.398;-4.274;2022-12-18T15:08:56;11.10;99.90
70269;DHT22;58514;48.398;-4.274;2022-12-18T15:13:53;11.10;99.90
70269;DHT22;58514;48.398;-4.274;2022-12-18T15:16:19;11.10;99.90
70269;DHT22;58514;48.398;-4.274;2022-12-18T15:18:45;11.10;99.90
70269;DHT22;58514;48.398;-4.274;2022-12-18T15:21:17;11.10;99.90
70269;DHT22;58514;48.398;-4.274;2022-12-18T15:26:09;11.10;99.90
70269;DHT22;58514;48.398;-4.274;2022-12-18T15:28:43;11.10;99.90
70269;DHT22;58514;48.398;-4.274;2022-12-18T15:33:36;11.10;99.90
70269;DHT22;58514;48.398;-4.274;2022-12-18T15:36:08;11.10;99.90
70269;DHT22;58514;48.398;-4.274;2022-12-18T15:38:33;11.10;99.90
70269;DHT22;58514;48.398;-4.274;2022-12-18T15:40:59;11.10;99.90
70269;DHT22;58514;48.398;-4.274;2022-12-18T15:43:25;11.10;99.90
70269;DHT22;58514;48.398;-4.274;2022-12-18T15:46:01;11.10;99.90
70269;DHT22;58514;48.398;-4.274;2022-12-18T15:48:27;11.10;99.90
70269;DHT22;58514;48.398;-4.274;2022-12-18T15:50:53;11.20;99.90
70269;DHT22;58514;48.398;-4.274;2022-12-18T15:53:22;11.10;99.90
70269;DHT22;58514;48.398;-4.274;2022-12-18T15:55:47;11.10;99.90
70269;DHT22;58514;48.398;-4.274;2022-12-18T15:58:31;11.20;99.90
70269;DHT22;58514;48.398;-4.274;2022-12-18T16:01:08;11.20;99.90
70269;DHT22;58514;48.398;-4.274;2022-12-18T16:03:34;11.20;99.90
70269;DHT22;58514;48.398;-4.274;2022-12-18T16:06:00;11.20;99.90
70269;DHT22;58514;48.398;-4.274;2022-12-18T16:08:28;11.20;99.90
70269;DHT22;58514;48.398;-4.274;2022-12-18T16:10:54;11.10;99.90
70269;DHT22;58514;48.398;-4.274;2022-12-18T16:13:20;11.10;99.90
70269;DHT22;58514;48.398;-4.274;2022-12-18T16:15:45;11.10;99.90
70269;DHT22;58514;48.398;-4.274;2022-12-18T16:18:11;11.20;99.90
70269;DHT22;58514;48.398;-4.274;2022-12-18T16:20:37;11.20;99.90
70269;DHT22;58514;48.398;-4.274;2022-12-18T16:23:03;11.20;99.90
70269;DHT22;58514;48.398;-4.274;2022-12-18T16:25:29;11.10;99.90
70269;DHT22;58514;48.398;-4.274;2022-12-18T16:27:55;11.10;99.90
70269;DHT22;58514;48.398;-4.274;2022-12-18T16:30:22;11.20;99.90
70269;DHT22;58514;48.398;-4.274;2022-12-18T16:32:48;11.20;99.90
70269;DHT22;58514;48.398;-4.274;2022-12-18T16:35:14;11.20;99.90
70269;DHT22;58514;48.398;-4.274;2022-12-18T16:37:41;11.20;99.90
70269;DHT22;58514;48.398;-4.274;2022-12-18T16:40:07;11.20;99.90
70269;DHT22;58514;48.398;-4.274;2022-12-18T16:42:34;11.30;99.90
70269;DHT22;58514;48.398;-4.274;2022-12-18T16:45:00;11.30;99.90
70269;DHT22;58514;48.398;-4.274;2022-12-18T16:47:25;11.30;99.90
70269;DHT22;58514;48.398;-4.274;2022-12-18T16:49:51;11.30;99.90
70269;DHT22;58514;48.398;-4.274;2022-12-18T16:52:17;11.30;99.90
70269;DHT22;58514;48.398;-4.274;2022-12-18T16:54:43;11.30;99.90
70269;DHT22;58514;48.398;-4.274;2022-12-18T16:57:15;11.40;99.90
70269;DHT22;58514;48.398;-4.274;2022-12-18T16:59:41;11.40;99.90
70269;DHT22;58514;48.398;-4.274;2022-12-18T17:02:39;11.40;99.90
70269;DHT22;58514;48.398;-4.274;2022-12-18T17:04:58;11.50;99.90
70269;DHT22;58514;48.398;-4.274;2022-12-18T17:07:24;11.50;99.90